Time;durP1;ratioP1;P1;durP2;ratioP2;P2;SDS_P1;SDS_P2;PMS_P1;PMS_P2;Temp;Humidity;BMP_temperature;BMP_pressure;BME280_temperature;BME280_humidity;BME280_pressure;Samples;Min_cycle;Max_cycle;Signal;HPM_P1;HPM_P2
2023/01/19 00:00:34;;;;;;;11.18;1.20;;;;;;;-143.48;95.26;118439.88;5034006;28;20368;-28
2023/01/19 00:02:59;;;;;;;3.25;1.02;;;;;;;-143.48;95.55;118439.88;5032975;28;20053;-27
2023/01/19 00:05:25;;;;;;;1.98;0.85;;;;;;;-143.48;95.35;118439.88;5033008;28;20026;-27
2023/01/19 00:07:50;;;;;;;4.20;0.70;;;;;;;-143.48;94.87;118439.88;5033298;28;20094;-28
2023/01/19 00:10:16;;;;;;;3.88;0.60;;;;;;;-143.48;94.98;118439.88;5033258;28;20030;-28
2023/01/19 00:12:41;;;;;;;3.38;0.57;;;;;;;-143.48;94.92;118439.88;5035142;28;20052;-28
2023/01/19 00:15:07;;;;;;;5.35;0.93;;;;;;;-143.48;94.20;118439.88;5036895;28;20021;-28
2023/01/19 00:17:32;;;;;;;2.22;0.60;;;;;;;-143.48;94.21;118439.88;5036647;28;20075;-27
2023/01/19 00:19:57;;;;;;;3.70;1.10;;;;;;;-143.48;93.48;118439.88;5036589;28;20032;-28
2023/01/19 00:22:23;;;;;;;2.08;0.70;;;;;;;-143.48;93.32;118439.88;5036791;28;20033;-28
2023/01/19 00:24:49;;;;;;;3.85;0.60;;;;;;;-143.48;92.85;118439.88;5036716;28;20021;-28
2023/01/19 00:27:14;;;;;;;4.78;0.95;;;;;;;-143.48;92.65;118439.88;5036785;28;20037;-28
2023/01/19 00:29:40;;;;;;;5.53;1.48;;;;;;;-143.48;93.76;118439.88;5036497;28;20025;-28
2023/01/19 00:32:05;;;;;;;5.43;1.38;;;;;;;-143.48;94.09;118439.88;5036345;28;20029;-28
2023/01/19 00:34:38;;;;;;;4.35;1.10;;;;;;;-143.48;94.00;118439.88;5036797;28;20126;-27
2023/01/19 00:37:07;;;;;;;6.50;1.13;;;;;;;-143.48;94.08;118439.88;5035776;28;20447;-28
2023/01/19 00:39:33;;;;;;;3.25;0.70;;;;;;;-143.48;94.03;118439.88;5034210;28;20029;-28
2023/01/19 00:44:42;;;;;;;4.85;1.15;;;;;;;-143.48;94.56;118439.88;5034050;28;20056;-27
2023/01/19 00:47:07;;;;;;;2.45;0.82;;;;;;;-143.48;94.12;118439.88;5033988;28;20029;-28
2023/01/19 00:49:32;;;;;;;7.80;1.10;;;;;;;-143.48;94.21;118439.88;5033964;28;20052;-28
2023/01/19 00:51:58;;;;;;;11.38;1.60;;;;;;;-143.48;94.42;118439.88;5034055;28;20036;-28
2023/01/19 00:54:23;;;;;;;6.32;1.20;;;;;;;-143.48;94.16;118439.88;5034471;28;20033;-28
2023/01/19 00:56:48;;;;;;;6.00;0.98;;;;;;;-143.48;93.48;118439.88;5035605;28;20463;-28
2023/01/19 00:59:14;;;;;;;3.67;1.17;;;;;;;-143.48;93.74;118439.88;5035937;28;20140;-28
2023/01/19 01:01:39;;;;;;;2.78;0.70;;;;;;;-143.48;93.80;118439.88;5035921;28;20036;-28
2023/01/19 01:04:05;;;;;;;6.03;1.52;;;;;;;-143.48;93.90;118439.88;5035792;28;20357;-27
2023/01/19 01:06:30;;;;;;;4.25;1.00;;;;;;;-143.48;94.46;118439.88;5035696;28;20452;-27
2023/01/19 01:08:55;;;;;;;5.00;1.27;;;;;;;-143.48;94.68;118439.88;5035749;28;20033;-28
2023/01/19 01:11:21;;;;;;;3.00;1.00;;;;;;;-143.48;94.74;118439.88;5035922;28;20024;-28
2023/01/19 01:13:46;;;;;;;3.17;0.88;;;;;;;-143.48;95.13;118439.88;5036152;28;20087;-28
2023/01/19 01:16:14;;;;;;;7.63;0.85;;;;;;;-143.48;95.17;118439.88;5035642;28;20028;-28
2023/01/19 01:18:39;;;;;;;4.63;1.00;;;;;;;-143.48;95.23;118439.88;5036238;28;20067;-28
2023/01/19 01:21:06;;;;;;;4.53;0.95;;;;;;;-143.48;95.39;118439.88;5034465;28;20049;-28
2023/01/19 01:23:33;;;;;;;4.35;0.75;;;;;;;-143.48;95.65;118439.88;5034801;28;20417;-28
2023/01/19 01:25:59;;;;;;;2.95;0.57;;;;;;;-143.48;95.93;118439.88;5035346;28;20100;-27
2023/01/19 01:28:24;;;;;;;2.58;0.70;;;;;;;-143.48;95.74;118439.88;5035252;28;20055;-28
2023/01/19 01:30:54;;;;;;;3.38;0.70;;;;;;;-143.48;95.62;118439.88;5035297;28;20025;-28
2023/01/19 01:33:19;;;;;;;2.92;0.63;;;;;;;-143.48;95.65;118439.88;5035791;28;20022;-28
2023/01/19 01:35:44;;;;;;;1.25;0.50;;;;;;;-143.48;95.54;118439.88;5035446;28;20095;-28
2023/01/19 01:38:10;;;;;;;1.85;0.47;;;;;;;-143.48;95.19;118439.88;5035076;28;20350;-28
2023/01/19 01:40:38;;;;;;;3.75;0.77;;;;;;;-143.48;94.74;118439.88;5034981;28;20033;-28
2023/01/19 01:43:10;;;;;;;4.18;0.50;;;;;;;-143.48;95.78;118439.88;5035046;28;20361;-28
2023/01/19 01:45:37;;;;;;;1.98;0.70;;;;;;;-143.48;95.96;118439.88;5035324;28;20361;-28
2023/01/19 01:48:14;;;;;;;2.47;0.47;;;;;;;-143.48;95.46;118439.88;5035595;28;20033;-28
2023/01/19 01:51:24;;;;;;;4.10;0.70;;;;;;;-143.48;96.31;118439.88;5034815;28;20026;-27
2023/01/19 01:54:11;;;;;;;10.02;1.30;;;;;;;-143.48;95.90;118439.88;5034959;28;20021;-28
2023/01/19 01:56:45;;;;;;;8.07;0.85;;;;;;;-143.48;96.14;118439.88;5035336;28;20101;-28
2023/01/19 01:59:24;;;;;;;10.68;1.13;;;;;;;-143.48;96.29;118439.88;5034516;28;20155;-28
2023/01/19 02:04:42;;;;;;;5.95;0.93;;;;;;;-143.48;95.43;118439.88;5034384;28;20036;-28
2023/01/19 02:15:20;;;;;;;3.47;1.00;;;;;;;-143.48;95.90;118439.88;5034570;28;20440;-28
2023/01/19 02:17:46;;;;;;;6.28;0.82;;;;;;;-143.48;95.33;118439.88;5034494;28;20112;-28
2023/01/19 02:20:12;;;;;;;7.45;1.08;;;;;;;-143.48;95.24;118439.88;5034940;28;20052;-27
2023/01/19 02:22:47;;;;;;;12.73;1.27;;;;;;;-143.48;95.39;118439.88;5034661;28;20065;-28
2023/01/19 02:25:13;;;;;;;11.93;1.33;;;;;;;-143.48;95.62;118439.88;5034274;28;20449;-28
2023/01/19 02:27:39;;;;;;;7.68;1.17;;;;;;;-143.48;95.68;118439.88;5034672;28;20025;-28
2023/01/19 02:30:06;;;;;;;5.80;0.80;;;;;;;-143.48;95.49;118439.88;5034320;28;20116;-28
2023/01/19 02:32:31;;;;;;;4.95;0.85;;;;;;;-143.48;94.96;118439.88;5034016;28;20587;-27
2023/01/19 02:34:57;;;;;;;4.95;0.90;;;;;;;-143.48;95.42;118439.88;5033209;28;20022;-27
2023/01/19 02:37:23;;;;;;;5.55;1.20;;;;;;;-143.48;94.81;118439.88;5034334;28;20036;-28
2023/01/19 02:39:51;;;;;;;6.78;1.33;;;;;;;-143.48;94.10;118439.88;5016424;28;20117;-28
2023/01/19 02:42:24;;;;;;;10.25;1.10;;;;;;;-143.48;94.79;118439.88;5034238;28;20037;-28
2023/01/19 02:44:51;;;;;;;8.13;1.08;;;;;;;-143.48;95.31;118439.88;5033877;28;20093;-28
2023/01/19 02:47:17;;;;;;;5.13;0.75;;;;;;;-143.48;93.71;118439.88;5034176;28;20364;-38
2023/01/19 02:49:42;;;;;;;5.88;0.60;;;;;;;-143.48;93.32;118439.88;5033964;28;20029;-39
2023/01/19 02:52:14;;;;;;;3.88;0.65;;;;;;;-143.48;94.10;118439.88;5034146;28;20065;-38
2023/01/19 02:54:57;;;;;;;2.40;0.63;;;;;;;-143.48;94.01;118439.88;5033889;28;20380;-39
2023/01/19 02:57:53;;;;;;;4.43;0.50;;;;;;;-143.48;93.02;118439.88;5033949;28;20085;-38
2023/01/19 03:00:50;;;;;;;4.38;0.88;;;;;;;-143.48;93.54;118439.88;5033644;28;20116;-38
2023/01/19 03:03:29;;;;;;;2.22;0.50;;;;;;;-143.48;92.77;118439.88;5033393;28;20423;-38
2023/01/19 03:06:04;;;;;;;2.30;0.50;;;;;;;-143.48;92.04;118439.88;5032924;28;20018;-39
2023/01/19 03:08:53;;;;;;;2.63;0.70;;;;;;;-143.48;91.51;118439.88;5032601;28;20029;-38
2023/01/19 03:11:19;;;;;;;1.90;0.60;;;;;;;-143.48;91.50;118439.88;5015185;28;20048;-38
2023/01/19 03:13:50;;;;;;;6.38;0.80;;;;;;;-143.48;90.90;118439.88;5032787;28;20021;-38
2023/01/19 03:16:20;;;;;;;5.22;0.65;;;;;;;-143.48;90.15;118439.88;5032784;28;20037;-39
2023/01/19 03:18:50;;;;;;;5.38;0.88;;;;;;;-143.48;89.72;118439.88;5033070;28;20100;-39
2023/01/19 03:21:18;;;;;;;8.52;0.77;;;;;;;-143.48;89.95;118439.88;5033677;28;20164;-39
2023/01/19 03:23:45;;;;;;;8.63;0.90;;;;;;;-143.48;90.43;118439.88;5033348;28;20028;-38
2023/01/19 03:26:14;;;;;;;6.85;0.88;;;;;;;-143.48;89.82;118439.88;5033323;28;20036;-38
2023/01/19 03:28:42;;;;;;;7.93;1.42;;;;;;;-143.48;89.99;118439.88;5033220;28;20472;-38
2023/01/19 03:31:18;;;;;;;2.83;0.85;;;;;;;-143.48;89.99;118439.88;5033233;28;20026;-38
2023/01/19 03:33:48;;;;;;;4.95;0.93;;;;;;;-143.48;91.43;118439.88;5033257;28;20018;-38
2023/01/19 03:36:20;;;;;;;3.90;0.60;;;;;;;-143.48;91.63;118439.88;5033269;28;20079;-38
2023/01/19 03:38:48;;;;;;;4.55;1.00;;;;;;;-143.48;92.13;118439.88;5033229;28;20110;-38
2023/01/19 03:41:16;;;;;;;3.78;0.95;;;;;;;-143.48;91.62;118439.88;5033105;28;20029;-38
2023/01/19 03:43:43;;;;;;;7.80;1.40;;;;;;;-143.48;92.60;118439.88;5033386;28;20018;-38
2023/01/19 03:46:10;;;;;;;6.38;0.80;;;;;;;-143.48;93.71;118439.88;5034669;28;20022;-26
2023/01/19 03:48:36;;;;;;;6.55;1.55;;;;;;;-143.48;93.23;118439.88;5037456;28;20483;-27
2023/01/19 03:51:07;;;;;;;8.40;1.92;;;;;;;-143.48;93.27;118439.88;5037060;28;20030;-27
2023/01/19 03:53:33;;;;;;;6.55;1.08;;;;;;;-143.48;93.82;118439.88;5036981;28;20025;-26
2023/01/19 03:55:58;;;;;;;6.95;1.42;;;;;;;-143.48;93.76;118439.88;5037424;28;20478;-25
2023/01/19 03:58:24;;;;;;;2.65;0.77;;;;;;;-143.48;93.90;118439.88;5036730;28;20081;-26
2023/01/19 04:00:49;;;;;;;5.45;1.20;;;;;;;-143.48;93.59;118439.88;5036833;28;20025;-26
2023/01/19 04:03:16;;;;;;;6.63;1.65;;;;;;;-143.48;93.94;118439.88;5036699;28;20033;-26
2023/01/19 04:05:42;;;;;;;5.18;1.27;;;;;;;-143.48;93.40;118439.88;5036699;28;20025;-26
2023/01/19 04:08:08;;;;;;;6.63;1.00;;;;;;;-143.48;93.46;118439.88;5036851;28;20047;-26
2023/01/19 04:10:34;;;;;;;5.40;0.70;;;;;;;-143.48;93.97;118439.88;5037157;28;20381;-25
2023/01/19 04:13:00;;;;;;;7.00;0.82;;;;;;;-143.48;93.77;118439.88;5036609;28;20112;-27
2023/01/19 04:15:26;;;;;;;6.70;1.20;;;;;;;-143.48;93.50;118439.88;5036517;28;20021;-25
2023/01/19 04:17:52;;;;;;;5.03;0.70;;;;;;;-143.48;93.61;118439.88;5036495;28;20470;-26
2023/01/19 04:20:17;;;;;;;6.00;1.10;;;;;;;-143.48;94.19;118439.88;5036821;28;20101;-26
2023/01/19 04:22:42;;;;;;;6.82;1.23;;;;;;;-143.48;94.21;118439.88;5036557;28;20032;-26
2023/01/19 04:25:09;;;;;;;6.60;0.90;;;;;;;-143.48;93.94;118439.88;5036609;28;20028;-26
2023/01/19 04:27:35;;;;;;;5.47;1.17;;;;;;;-143.48;93.69;118439.88;5037046;28;20061;-26
2023/01/19 04:30:02;;;;;;;3.45;0.68;;;;;;;-143.48;93.31;118439.88;5036172;28;20025;-26
2023/01/19 04:32:28;;;;;;;4.57;0.90;;;;;;;-143.48;93.39;118439.88;5036182;28;20032;-26
2023/01/19 04:34:53;;;;;;;6.78;1.00;;;;;;;-143.48;93.66;118439.88;5018259;28;20025;-26
2023/01/19 04:37:18;;;;;;;11.35;1.75;;;;;;;-143.48;93.63;118439.88;5018143;28;20041;-26
2023/01/19 04:39:44;;;;;;;7.60;1.85;;;;;;;-143.48;93.96;118439.88;5018106;28;20033;-26
2023/01/19 04:42:09;;;;;;;7.47;1.85;;;;;;;-143.48;93.69;118439.88;5035783;28;20025;-26
2023/01/19 04:44:34;;;;;;;8.80;1.25;;;;;;;-143.48;93.54;118439.88;5035831;28;20026;-26
2023/01/19 04:47:00;;;;;;;9.40;1.45;;;;;;;-143.48;93.31;118439.88;5036092;28;20094;-25
2023/01/19 04:49:25;;;;;;;7.35;0.85;;;;;;;-143.48;93.40;118439.88;5036301;28;20026;-26
2023/01/19 04:51:53;;;;;;;8.63;1.17;;;;;;;-143.48;92.98;118439.88;5036039;28;20022;-26
2023/01/19 04:54:20;;;;;;;8.07;1.65;;;;;;;-143.48;93.16;118439.88;5036294;28;20025;-25
2023/01/19 04:56:45;;;;;;;6.55;1.20;;;;;;;-143.48;92.65;118439.88;5036225;28;20029;-26
2023/01/19 04:59:10;;;;;;;4.45;1.13;;;;;;;-143.48;93.09;118439.88;5003470;28;20396;-26
2023/01/19 05:01:36;;;;;;;8.93;1.52;;;;;;;-143.48;93.48;118439.88;5016106;28;20026;-26
2023/01/19 05:04:03;;;;;;;9.32;1.50;;;;;;;-143.48;93.65;118439.88;5016035;28;20026;-26
2023/01/19 05:06:29;;;;;;;10.10;1.52;;;;;;;-143.48;92.99;118439.88;5016214;28;20461;-26
2023/01/19 05:08:54;;;;;;;9.13;1.80;;;;;;;-143.48;92.94;118439.88;5015754;28;20102;-27
2023/01/19 05:11:20;;;;;;;8.95;1.23;;;;;;;-143.48;93.09;118439.88;4998801;28;20037;-27
2023/01/19 05:13:45;;;;;;;11.63;1.50;;;;;;;-143.48;93.38;118439.88;5016136;28;20026;-27
2023/01/19 05:16:12;;;;;;;18.45;1.75;;;;;;;-143.48;93.22;118439.88;5015843;28;20428;-27
2023/01/19 05:18:38;;;;;;;11.00;1.85;;;;;;;-143.48;92.53;118439.88;5016108;28;20026;-26
2023/01/19 05:21:04;;;;;;;14.68;2.20;;;;;;;-143.48;92.59;118439.88;5015919;28;20384;-27
2023/01/19 05:23:31;;;;;;;12.57;2.22;;;;;;;-143.48;93.45;118439.88;5016360;28;20030;-27
2023/01/19 05:25:59;;;;;;;18.88;2.55;;;;;;;-143.48;93.55;118439.88;5015933;28;20045;-26
2023/01/19 05:28:25;;;;;;;18.08;2.47;;;;;;;-143.48;93.45;118439.88;5015523;28;20111;-27
2023/01/19 05:30:50;;;;;;;14.02;2.10;;;;;;;-143.48;93.61;118439.88;5015494;28;20025;-26
2023/01/19 05:33:15;;;;;;;18.85;2.25;;;;;;;-143.48;93.38;118439.88;5015823;28;20481;-26
2023/01/19 05:35:41;;;;;;;14.38;2.30;;;;;;;-143.48;93.45;118439.88;4997947;28;20025;-27
2023/01/19 05:38:06;;;;;;;12.57;2.50;;;;;;;-143.48;93.45;118439.88;5015368;28;20022;-27
2023/01/19 05:40:32;;;;;;;12.52;2.33;;;;;;;-143.48;92.58;118439.88;5015351;28;20053;-26
2023/01/19 05:43:00;;;;;;;12.85;2.78;;;;;;;-143.48;92.75;118439.88;5015119;28;20021;-27
2023/01/19 05:45:27;;;;;;;16.33;2.58;;;;;;;-143.48;92.12;118439.88;5015287;28;20469;-26
2023/01/19 05:47:53;;;;;;;13.45;2.00;;;;;;;-143.48;92.99;118439.88;5015199;28;20021;-27
2023/01/19 05:50:19;;;;;;;10.95;2.13;;;;;;;-143.48;92.08;118439.88;5015300;28;20026;-27
2023/01/19 05:52:44;;;;;;;9.90;2.13;;;;;;;-143.48;91.37;118439.88;5014986;28;20040;-27
2023/01/19 05:55:09;;;;;;;16.67;1.90;;;;;;;-143.48;91.64;118439.88;5015071;28;20025;-27
2023/01/19 05:57:35;;;;;;;12.45;2.22;;;;;;;-143.48;91.22;118439.88;5015730;28;20022;-27
2023/01/19 06:00:00;;;;;;;14.38;2.10;;;;;;;-143.48;91.80;118439.88;5034714;28;20365;-27
2023/01/19 06:02:27;;;;;;;11.27;2.05;;;;;;;-143.48;92.51;118439.88;5034970;28;20037;-26
2023/01/19 06:04:53;;;;;;;14.10;2.15;;;;;;;-143.48;92.08;118439.88;5034941;28;20025;-26
2023/01/19 06:07:18;;;;;;;15.73;2.35;;;;;;;-143.48;91.59;118439.88;5016924;28;20384;-27
2023/01/19 06:09:43;;;;;;;15.70;2.38;;;;;;;-143.48;90.63;118439.88;5033622;28;20461;-26
2023/01/19 06:12:09;;;;;;;10.50;1.73;;;;;;;-143.48;90.33;118439.88;5035079;28;20030;-27
2023/01/19 06:14:36;;;;;;;12.15;2.10;;;;;;;-143.48;90.25;118439.88;5034600;28;20550;-27
2023/01/19 06:17:02;;;;;;;18.33;2.42;;;;;;;-143.48;88.13;118439.88;5034582;28;20048;-26
2023/01/19 06:19:27;;;;;;;19.70;2.95;;;;;;;-143.48;87.93;118439.88;5034908;28;20108;-26
2023/01/19 06:21:52;;;;;;;19.90;3.63;;;;;;;-143.48;88.58;118439.88;5034385;28;20381;-27
2023/01/19 06:24:18;;;;;;;24.52;4.88;;;;;;;-143.48;88.74;118439.88;5034447;28;20040;-27
2023/01/19 06:26:44;;;;;;;18.77;4.63;;;;;;;-143.48;89.80;118439.88;5034463;28;20036;-27
2023/01/19 06:29:11;;;;;;;15.40;4.20;;;;;;;-143.48;90.22;118439.88;5034528;28;20083;-26
2023/01/19 06:31:36;;;;;;;15.73;3.50;;;;;;;-143.48;89.64;118439.88;5034196;28;20021;-27
2023/01/19 06:34:02;;;;;;;17.38;3.70;;;;;;;-143.48;91.26;118439.88;5034399;28;20017;-27
2023/01/19 06:36:27;;;;;;;20.20;3.70;;;;;;;-143.48;90.50;118439.88;5034240;28;20117;-27
2023/01/19 06:38:52;;;;;;;13.02;2.90;;;;;;;-143.48;90.24;118439.88;5033895;28;20029;-26
2023/01/19 06:41:17;;;;;;;10.35;2.63;;;;;;;-143.48;90.10;118439.88;5034222;28;20041;-27
2023/01/19 06:43:43;;;;;;;14.70;3.03;;;;;;;-143.48;89.35;118439.88;5033932;28;20029;-26
2023/01/19 06:46:08;;;;;;;18.55;2.10;;;;;;;-143.48;89.29;118439.88;5034131;28;20096;-27
2023/01/19 06:48:33;;;;;;;14.73;2.70;;;;;;;-143.48;88.52;118439.88;5034321;28;20144;-27
2023/01/19 06:50:59;;;;;;;19.02;2.97;;;;;;;-143.48;88.98;118439.88;5033831;28;20060;-26
2023/01/19 06:53:26;;;;;;;18.65;3.80;;;;;;;-143.48;89.24;118439.88;5034305;28;20349;-27
2023/01/19 06:55:51;;;;;;;13.45;3.22;;;;;;;-143.48;89.91;118439.88;5034096;28;20035;-27
2023/01/19 06:58:17;;;;;;;21.38;3.70;;;;;;;-143.48;89.73;118439.88;5033517;28;20136;-27
2023/01/19 07:00:42;;;;;;;19.23;2.78;;;;;;;-143.48;89.18;118439.88;5015935;28;20029;-27
2023/01/19 07:03:08;;;;;;;17.83;2.60;;;;;;;-143.48;89.23;118439.88;5033457;28;20500;-27
2023/01/19 07:05:35;;;;;;;15.63;2.38;;;;;;;-143.48;89.59;118439.88;5033386;28;20100;-27
2023/01/19 07:08:00;;;;;;;10.68;2.40;;;;;;;-143.48;89.43;118439.88;5033649;28;20022;-26
2023/01/19 07:10:26;;;;;;;19.40;2.67;;;;;;;-143.48;89.91;118439.88;5033389;28;20091;-27
2023/01/19 07:12:52;;;;;;;16.65;2.58;;;;;;;-143.48;89.63;118439.88;5033252;28;20029;-27
2023/01/19 07:15:18;;;;;;;15.50;2.33;;;;;;;-143.48;89.06;118439.88;5032667;28;20425;-27
2023/01/19 07:17:44;;;;;;;8.23;2.33;;;;;;;-143.48;89.08;118439.88;5032328;28;20033;-26
2023/01/19 07:20:13;;;;;;;11.68;2.20;;;;;;;-143.48;89.53;118439.88;5031690;28;20071;-27
2023/01/19 07:22:39;;;;;;;20.92;2.55;;;;;;;-143.48;89.83;118439.88;5032734;28;20074;-27
2023/01/19 07:25:05;;;;;;;14.32;2.10;;;;;;;-143.48;88.99;118439.88;5032868;28;20161;-27
2023/01/19 07:27:30;;;;;;;15.95;2.38;;;;;;;-143.48;88.77;118439.88;5032097;28;20116;-26
2023/01/19 07:29:55;;;;;;;25.02;3.30;;;;;;;-143.48;88.26;118439.88;5030867;28;20036;-26
2023/01/19 07:32:21;;;;;;;10.70;2.30;;;;;;;-143.48;89.82;118439.88;5030811;28;20560;-27
2023/01/19 07:34:46;;;;;;;21.08;3.25;;;;;;;-143.48;89.00;118439.88;5029771;28;20025;-27
2023/01/19 07:37:12;;;;;;;14.40;2.28;;;;;;;-143.48;90.43;118439.88;5030836;28;20119;-27
2023/01/19 07:39:37;;;;;;;11.68;2.10;;;;;;;-143.48;90.22;118439.88;5013099;28;20033;-27
2023/01/19 07:42:03;;;;;;;17.20;1.92;;;;;;;-143.48;89.18;118439.88;5031149;28;20026;-27
2023/01/19 07:44:28;;;;;;;9.60;1.92;;;;;;;-143.48;88.01;118439.88;5032850;28;20427;-26
2023/01/19 07:46:54;;;;;;;18.88;2.85;;;;;;;-143.48;86.84;118439.88;5033109;28;20061;-27
2023/01/19 07:49:19;;;;;;;19.73;2.50;;;;;;;-143.48;87.41;118439.88;5032883;28;20037;-27
2023/01/19 07:51:45;;;;;;;11.85;2.45;;;;;;;-143.48;87.24;118439.88;5032876;28;20353;-27
2023/01/19 07:54:10;;;;;;;15.25;2.33;;;;;;;-143.48;87.02;118439.88;5032478;28;20025;-26
2023/01/19 07:56:35;;;;;;;13.10;2.45;;;;;;;-143.48;87.86;118439.88;5033058;28;20029;-25
2023/01/19 07:59:01;;;;;;;15.35;3.33;;;;;;;-143.48;87.14;118439.88;5032843;28;20052;-26
2023/01/19 08:01:30;;;;;;;15.70;2.78;;;;;;;-143.48;86.65;118439.88;5033079;28;20037;-26
2023/01/19 08:03:55;;;;;;;14.93;2.55;;;;;;;-143.48;86.52;118439.88;5033472;28;20088;-26
2023/01/19 08:06:23;;;;;;;15.82;2.47;;;;;;;-143.48;86.85;118439.88;5032954;28;20033;-27
2023/01/19 08:08:49;;;;;;;22.08;2.38;;;;;;;-143.48;86.51;118439.88;5014535;28;20097;-25
2023/01/19 08:11:15;;;;;;;16.52;2.30;;;;;;;-143.48;85.86;118439.88;5014505;28;20029;-26
2023/01/19 08:13:42;;;;;;;9.15;2.10;;;;;;;-143.48;85.71;118439.88;5014536;28;20071;-25
2023/01/19 08:16:09;;;;;;;14.38;2.47;;;;;;;-143.48;86.21;118439.88;5031990;28;20054;-26
2023/01/19 08:18:34;;;;;;;17.58;2.67;;;;;;;-143.48;87.12;118439.88;4998214;28;20116;-27
2023/01/19 08:21:00;;;;;;;13.98;2.53;;;;;;;-143.48;85.86;118439.88;5032169;28;20052;-26
2023/01/19 08:23:26;;;;;;;13.40;2.58;;;;;;;-143.48;84.89;118439.88;5032908;28;20061;-26
2023/01/19 08:25:52;;;;;;;14.95;2.63;;;;;;;-143.48;84.80;118439.88;5015118;28;20464;-26
2023/01/19 08:28:17;;;;;;;17.45;2.63;;;;;;;-143.48;83.98;118439.88;5032341;28;20052;-26
2023/01/19 08:30:43;;;;;;;11.77;2.58;;;;;;;-143.48;84.84;118439.88;5033055;28;20103;-26
2023/01/19 08:33:10;;;;;;;18.13;3.50;;;;;;;-143.48;84.51;118439.88;5033722;28;20017;-26
2023/01/19 08:35:38;;;;;;;19.27;2.97;;;;;;;-143.48;83.43;118439.88;5036295;28;20022;-27
2023/01/19 08:38:05;;;;;;;14.20;3.38;;;;;;;-143.48;84.26;118439.88;5036341;28;20026;-26
2023/01/19 08:40:33;;;;;;;21.08;2.92;;;;;;;-143.48;84.41;118439.88;5036112;28;20069;-27
2023/01/19 08:43:02;;;;;;;16.23;2.90;;;;;;;-143.48;84.55;118439.88;5018317;28;20029;-26
2023/01/19 08:45:28;;;;;;;14.45;2.72;;;;;;;-143.48;86.90;118439.88;5036113;28;20025;-26
2023/01/19 08:47:57;;;;;;;16.95;3.30;;;;;;;-143.48;85.85;118439.88;5036397;28;20037;-26
2023/01/19 08:50:23;;;;;;;11.45;2.55;;;;;;;-143.48;83.44;118439.88;5018104;28;20025;-26
2023/01/19 08:52:48;;;;;;;14.05;2.35;;;;;;;-143.48;84.79;118439.88;5036472;28;20477;-27
2023/01/19 08:55:14;;;;;;;12.77;2.00;;;;;;;-143.48;84.41;118439.88;5035959;28;20464;-27
2023/01/19 08:57:39;;;;;;;11.40;2.78;;;;;;;-143.48;84.68;118439.88;5035221;28;20057;-27
2023/01/19 09:00:06;;;;;;;13.38;2.30;;;;;;;-143.48;84.60;118439.88;5035820;28;20018;-27
2023/01/19 09:02:32;;;;;;;14.52;2.10;;;;;;;-143.48;84.46;118439.88;5035991;28;20021;-27
2023/01/19 09:04:57;;;;;;;10.50;2.22;;;;;;;-143.48;83.04;118439.88;5035887;28;20028;-26
2023/01/19 09:07:23;;;;;;;12.13;2.00;;;;;;;-143.48;85.07;118439.88;5035511;28;20107;-26
2023/01/19 09:09:48;;;;;;;12.70;1.90;;;;;;;-143.48;83.43;118439.88;5035508;28;20071;-27
2023/01/19 09:12:13;;;;;;;12.07;1.70;;;;;;;-143.48;83.04;118439.88;5035767;28;20029;-27
2023/01/19 09:14:39;;;;;;;14.13;2.53;;;;;;;-143.48;82.00;118439.88;5035958;28;20087;-26
2023/01/19 09:17:05;;;;;;;13.68;2.08;;;;;;;-143.48;80.88;118439.88;5035883;28;20468;-27
2023/01/19 09:19:30;;;;;;;16.05;2.70;;;;;;;-143.48;82.30;118439.88;5035838;28;20027;-27
2023/01/19 09:21:57;;;;;;;16.10;2.15;;;;;;;-143.48;82.80;118439.88;5035934;28;20458;-27
2023/01/19 09:24:23;;;;;;;12.13;2.08;;;;;;;-143.48;81.96;118439.88;5035266;28;20064;-27
2023/01/19 09:26:48;;;;;;;14.45;2.53;;;;;;;-143.48;83.31;118439.88;5035936;28;20056;-27
2023/01/19 09:29:14;;;;;;;12.18;2.20;;;;;;;-143.48;83.89;118439.88;5035615;28;20103;-27
2023/01/19 09:31:39;;;;;;;13.38;1.98;;;;;;;-143.48;83.15;118439.88;5035539;28;20438;-26
2023/01/19 09:34:05;;;;;;;15.82;2.15;;;;;;;-143.48;82.05;118439.88;5035148;28;20423;-25
2023/01/19 09:36:31;;;;;;;13.10;2.10;;;;;;;-143.48;80.17;118439.88;5035208;28;20384;-26
2023/01/19 09:38:56;;;;;;;14.27;2.30;;;;;;;-143.48;81.48;118439.88;5035356;28;20053;-26
2023/01/19 09:41:24;;;;;;;10.50;2.13;;;;;;;-143.48;81.00;118439.88;5035321;28;20083;-26
2023/01/19 09:43:55;;;;;;;13.93;2.17;;;;;;;-143.48;81.15;118439.88;5034920;28;20029;-26
2023/01/19 09:46:32;;;;;;;13.63;1.88;;;;;;;-143.48;81.56;118439.88;5035245;28;20021;-27
2023/01/19 09:49:03;;;;;;;17.90;2.03;;;;;;;-143.48;80.89;118439.88;5034947;28;20026;-26
2023/01/19 09:51:35;;;;;;;9.60;2.10;;;;;;;-143.48;80.20;118439.88;5034751;28;20393;-27
2023/01/19 09:54:14;;;;;;;8.77;1.92;;;;;;;-143.48;80.79;118439.88;5034044;28;20021;-26
2023/01/19 09:56:42;;;;;;;16.83;3.20;;;;;;;-143.48;79.01;118439.88;5035253;28;20029;-26
2023/01/19 09:59:19;;;;;;;10.00;2.08;;;;;;;-143.48;77.49;118439.88;5034898;28;20042;-27
2023/01/19 10:02:17;;;;;;;9.75;1.80;;;;;;;-143.48;75.17;118439.88;5035831;28;20420;-27
2023/01/19 10:04:55;;;;;;;10.38;1.70;;;;;;;-143.48;75.14;118439.88;5034575;28;20484;-27
2023/01/19 10:07:39;;;;;;;13.63;2.17;;;;;;;-143.48;71.18;118439.88;5034521;28;20029;-27
2023/01/19 10:10:20;;;;;;;13.23;2.10;;;;;;;-143.48;52.85;118439.88;5016837;28;20079;-27
2023/01/19 10:12:54;;;;;;;9.95;2.22;;;;;;;-143.48;46.85;118439.88;5034652;28;20076;-28
2023/01/19 10:15:58;;;;;;;8.25;2.00;;;;;;;-143.48;45.13;118439.88;5017777;28;20391;-26
2023/01/19 10:18:45;;;;;;;8.63;1.95;;;;;;;-143.48;41.56;118439.88;5003717;28;20042;-27
2023/01/19 10:21:21;;;;;;;13.90;2.40;;;;;;;-143.48;41.59;118439.88;5034690;28;20033;-27
2023/01/19 10:23:49;;;;;;;8.43;2.20;;;;;;;-143.48;40.21;118439.88;5034539;28;20018;-27
2023/01/19 10:26:21;;;;;;;10.18;2.33;;;;;;;-143.48;38.53;118439.88;5034422;28;20071;-27
2023/01/19 10:28:51;;;;;;;8.30;2.38;;;;;;;-143.48;38.67;118439.88;5034060;28;20508;-27
2023/01/19 10:31:20;;;;;;;8.30;2.10;;;;;;;-143.48;36.36;118439.88;5034174;28;20468;-28
2023/01/19 10:33:48;;;;;;;9.25;2.42;;;;;;;-143.48;35.20;118439.88;5034400;28;20379;-27
2023/01/19 10:36:34;;;;;;;8.52;2.33;;;;;;;-143.48;36.81;118439.88;5034071;28;20029;-27
2023/01/19 10:39:00;;;;;;;7.80;1.83;;;;;;;-143.48;35.70;118439.88;5034520;28;20025;-27
2023/01/19 10:41:50;;;;;;;7.18;1.90;;;;;;;-143.48;38.43;118439.88;5016070;28;20033;-30
2023/01/19 10:44:27;;;;;;;7.10;1.98;;;;;;;-143.48;35.99;118439.88;5033977;28;20022;-27
2023/01/19 10:46:58;;;;;;;9.63;2.25;;;;;;;-143.48;36.87;118439.88;5033888;28;20476;-27
2023/01/19 10:49:37;;;;;;;9.05;2.53;;;;;;;-143.48;36.51;118439.88;5033738;28;20083;-27
2023/01/19 10:52:05;;;;;;;6.72;2.00;;;;;;;-143.48;36.84;118439.88;5033834;28;20033;-28
2023/01/19 10:54:33;;;;;;;7.65;1.73;;;;;;;-143.48;34.45;118439.88;5034078;28;20099;-27
2023/01/19 10:57:06;;;;;;;7.28;2.20;;;;;;;-143.48;34.77;118439.88;5033158;28;20033;-27
2023/01/19 10:59:54;;;;;;;9.82;2.20;;;;;;;-143.48;34.48;118439.88;5033535;28;20092;-28
2023/01/19 11:02:20;;;;;;;8.40;2.17;;;;;;;-143.48;33.55;118439.88;5015302;28;20037;-27
2023/01/19 11:04:48;;;;;;;7.57;2.25;;;;;;;-143.48;32.90;118439.88;5033801;28;20113;-28
2023/01/19 11:07:28;;;;;;;8.73;2.08;;;;;;;-143.48;34.39;118439.88;5033530;28;20052;-28
2023/01/19 11:10:22;;;;;;;4.30;1.67;;;;;;;-143.48;34.72;118439.88;5033422;28;20037;-27
2023/01/19 11:13:11;;;;;;;9.43;2.17;;;;;;;-143.48;37.30;118439.88;5033555;28;20022;-27
2023/01/19 11:15:52;;;;;;;10.75;2.05;;;;;;;-143.48;40.11;118439.88;5033417;28;20100;-27
2023/01/19 11:18:28;;;;;;;8.02;1.73;;;;;;;-143.48;45.72;118439.88;5033514;28;20160;-27
2023/01/19 11:20:56;;;;;;;6.07;1.77;;;;;;;-143.48;51.07;118439.88;5015941;28;20064;-27
2023/01/19 11:23:27;;;;;;;14.68;2.00;;;;;;;-143.48;53.12;118439.88;5033204;28;20025;-27